Time;durP1;ratioP1;P1;durP2;ratioP2;P2;SDS_P1;SDS_P2;PMS_P1;PMS_P2;Temp;Humidity;BMP_temperature;BMP_pressure;BME280_temperature;BME280_humidity;BME280_pressure;Samples;Min_cycle;Max_cycle;Signal;HPM_P1;HPM_P2
2022/11/08 00:01:38;;;;;;;13.60;12.60;;;5.50;99.90;;;;;;4977474;28;20189;-81
2022/11/08 00:04:10;;;;;;;17.53;15.80;;;5.50;99.90;;;;;;4991682;28;20177;-82
2022/11/08 00:14:51;;;;;;;18.87;17.47;;;5.50;99.90;;;;;;4975913;28;20181;-83
2022/11/08 00:17:19;;;;;;;21.30;19.63;;;5.50;99.90;;;;;;4974284;28;20193;-83
2022/11/08 00:19:45;;;;;;;15.63;14.47;;;5.40;99.90;;;;;;4974613;28;20181;-83
2022/11/08 00:22:12;;;;;;;16.37;10.17;;;5.30;99.90;;;;;;4973202;28;20684;-83
2022/11/08 00:24:38;;;;;;;13.87;9.53;;;5.30;99.90;;;;;;4974383;28;20189;-82
2022/11/08 00:27:09;;;;;;;10.73;9.80;;;5.30;99.90;;;;;;4972451;28;20803;-82
2022/11/08 00:29:35;;;;;;;13.70;12.30;;;5.20;99.90;;;;;;4988277;28;20207;-82
2022/11/08 00:32:05;;;;;;;13.77;12.47;;;5.10;99.90;;;;;;5007388;28;20216;-82
2022/11/08 00:34:34;;;;;;;13.50;12.27;;;5.10;99.90;;;;;;5008610;28;20200;-83
2022/11/08 00:37:00;;;;;;;14.90;13.30;;;5.10;99.90;;;;;;4994574;28;20192;-83
2022/11/08 00:39:26;;;;;;;15.17;13.87;;;5.00;99.90;;;;;;4994072;28;20233;-83
2022/11/08 00:41:52;;;;;;;12.67;11.50;;;5.00;99.90;;;;;;4994223;28;20181;-83
2022/11/08 00:44:18;;;;;;;12.53;11.13;;;4.90;99.90;;;;;;4995334;28;20188;-83
2022/11/08 00:46:44;;;;;;;14.77;11.70;;;4.90;99.90;;;;;;5000391;28;20177;-82
2022/11/08 00:49:10;;;;;;;15.53;12.13;;;4.80;99.90;;;;;;4999331;28;20192;-83
2022/11/08 00:51:36;;;;;;;13.20;11.90;;;4.80;99.90;;;;;;4993497;28;20574;-83
2022/11/08 00:54:04;;;;;;;14.87;12.27;;;4.80;99.90;;;;;;4993258;28;20180;-83
2022/11/08 00:56:29;;;;;;;13.80;12.53;;;4.70;99.90;;;;;;4992777;28;20202;-83
2022/11/08 00:58:56;;;;;;;10.83;9.77;;;4.70;99.90;;;;;;4993552;28;20678;-83
2022/11/08 01:01:22;;;;;;;12.80;11.33;;;4.70;99.90;;;;;;4986622;28;20250;-83
2022/11/08 01:03:48;;;;;;;19.40;18.10;;;4.60;99.90;;;;;;4973259;28;20188;-82
2022/11/08 01:06:16;;;;;;;23.53;21.80;;;4.70;99.90;;;;;;4977531;28;20248;-82
2022/11/08 01:08:42;;;;;;;22.50;20.80;;;4.70;99.90;;;;;;4985792;28;20223;-83
2022/11/08 01:11:12;;;;;;;15.27;14.03;;;4.60;99.90;;;;;;4978475;28;20180;-82
2022/11/08 01:13:39;;;;;;;12.27;11.17;;;4.60;99.90;;;;;;4991850;28;20272;-82
2022/11/08 01:16:10;;;;;;;13.27;11.97;;;4.50;99.90;;;;;;4992715;28;20177;-82
2022/11/08 01:18:36;;;;;;;18.37;17.17;;;4.50;99.90;;;;;;4992033;28;20684;-82
2022/11/08 01:21:03;;;;;;;27.80;26.03;;;4.50;99.90;;;;;;4988870;28;20184;-82
2022/11/08 01:23:30;;;;;;;20.43;18.93;;;4.50;99.90;;;;;;4972556;28;20185;-81
2022/11/08 01:26:00;;;;;;;17.13;15.80;;;4.50;99.90;;;;;;4984237;28;20244;-81
2022/11/08 01:28:26;;;;;;;18.83;17.60;;;4.40;99.90;;;;;;4993799;28;20204;-81
2022/11/08 01:30:52;;;;;;;20.23;18.93;;;4.50;99.90;;;;;;4976660;28;20244;-82
2022/11/08 01:33:17;;;;;;;21.93;20.43;;;4.40;99.90;;;;;;4996684;28;20679;-80
2022/11/08 01:35:45;;;;;;;20.40;19.03;;;4.30;99.90;;;;;;4997764;28;20598;-83
2022/11/08 01:38:11;;;;;;;16.63;15.43;;;4.30;99.90;;;;;;4996982;28;20207;-82
2022/11/08 01:40:47;;;;;;;15.73;14.27;;;4.30;99.90;;;;;;4997605;28;20203;-81
2022/11/08 01:43:47;;;;;;;18.07;16.50;;;4.30;99.90;;;;;;4976939;28;20191;-83
2022/11/08 01:46:25;;;;;;;18.87;17.13;;;4.30;99.90;;;;;;4975842;28;20212;-83
2022/11/08 01:48:58;;;;;;;14.80;12.83;;;4.20;99.90;;;;;;4975247;28;20260;-83
2022/11/08 01:51:29;;;;;;;13.77;11.67;;;4.30;99.90;;;;;;4982852;28;20230;-82
2022/11/08 01:53:58;;;;;;;13.13;11.67;;;4.30;99.90;;;;;;4979212;28;20219;-82
2022/11/08 01:56:25;;;;;;;18.83;14.17;;;4.30;99.90;;;;;;4977199;28;20184;-82
2022/11/08 01:58:52;;;;;;;20.17;13.43;;;4.30;99.90;;;;;;4977573;28;20225;-82
2022/11/08 02:01:18;;;;;;;13.40;11.83;;;4.30;99.90;;;;;;4976319;28;20188;-82
2022/11/08 02:03:44;;;;;;;18.97;11.53;;;4.30;99.90;;;;;;4993898;28;20196;-82
2022/11/08 02:06:11;;;;;;;25.67;14.13;;;4.20;99.90;;;;;;4996335;28;20185;-82
2022/11/08 02:08:43;;;;;;;33.60;30.67;;;4.20;99.90;;;;;;4998310;28;20211;-80
2022/11/08 02:11:13;;;;;;;28.97;24.80;;;4.20;99.90;;;;;;5009491;28;20199;-81
2022/11/08 02:13:39;;;;;;;27.17;22.03;;;4.20;99.90;;;;;;5006343;28;20354;-82
2022/11/08 02:16:11;;;;;;;21.00;12.50;;;4.20;99.90;;;;;;4990483;28;20188;-81
2022/11/08 02:18:37;;;;;;;19.73;14.57;;;4.20;99.90;;;;;;4996915;28;20263;-81
2022/11/08 02:21:28;;;;;;;30.53;13.53;;;4.20;99.90;;;;;;5013508;28;20215;-83
2022/11/08 02:24:00;;;;;;;15.23;11.60;;;4.30;99.90;;;;;;4978612;28;20176;-82
2022/11/08 02:26:31;;;;;;;13.43;10.33;;;4.30;99.90;;;;;;4980357;28;20561;-83
2022/11/08 02:28:57;;;;;;;21.33;12.57;;;4.20;99.90;;;;;;4979018;28;20273;-82
2022/11/08 02:31:23;;;;;;;14.43;12.93;;;4.30;99.90;;;;;;4976814;28;20205;-82
2022/11/08 02:33:49;;;;;;;12.77;10.10;;;4.30;99.90;;;;;;4976265;28;20212;-82
2022/11/08 02:36:19;;;;;;;12.47;11.27;;;4.20;99.90;;;;;;4976027;28;20640;-82
2022/11/08 02:38:48;;;;;;;14.53;12.37;;;4.20;99.90;;;;;;4975522;28;20236;-82
2022/11/08 02:41:14;;;;;;;12.97;9.97;;;4.10;99.90;;;;;;4976055;28;20185;-82
2022/11/08 02:43:40;;;;;;;13.23;10.33;;;4.20;99.90;;;;;;4990657;28;20686;-82
2022/11/08 02:46:06;;;;;;;10.60;8.77;;;4.20;99.90;;;;;;4993760;28;20185;-82
2022/11/08 02:48:31;;;;;;;10.87;9.43;;;4.20;99.90;;;;;;4994265;28;20202;-82
2022/11/08 02:50:57;;;;;;;10.73;9.60;;;4.20;99.90;;;;;;4994848;28;20606;-82
2022/11/08 02:53:23;;;;;;;14.67;10.57;;;4.20;99.90;;;;;;4980516;28;20292;-81
2022/11/08 02:55:49;;;;;;;10.83;9.20;;;4.10;99.90;;;;;;4985817;28;20252;-82
2022/11/08 02:58:14;;;;;;;11.60;10.30;;;4.10;99.90;;;;;;4996583;28;20200;-81
2022/11/08 03:00:40;;;;;;;20.97;10.73;;;4.10;99.90;;;;;;4980501;28;20672;-83
2022/11/08 03:03:06;;;;;;;12.27;11.07;;;4.10;99.90;;;;;;4977596;28;20181;-82
2022/11/08 03:05:32;;;;;;;11.03;9.87;;;4.00;99.90;;;;;;4975837;28;20215;-82
2022/11/08 03:07:58;;;;;;;10.70;9.50;;;4.00;99.90;;;;;;4980329;28;20268;-80
2022/11/08 03:10:26;;;;;;;10.63;9.20;;;4.00;99.90;;;;;;4980912;28;20553;-82
2022/11/08 03:12:59;;;;;;;10.20;9.17;;;3.90;99.90;;;;;;4985150;28;20210;-82
2022/11/08 03:15:26;;;;;;;12.57;9.93;;;3.90;99.90;;;;;;4994337;28;20176;-81
2022/11/08 03:17:52;;;;;;;10.00;9.00;;;3.90;99.90;;;;;;4995121;28;20593;-82
2022/11/08 03:20:18;;;;;;;10.50;9.27;;;3.90;99.90;;;;;;4994318;28;20183;-81
2022/11/08 03:22:45;;;;;;;10.43;9.10;;;3.90;99.90;;;;;;4986859;28;20726;-82
2022/11/08 03:25:11;;;;;;;12.90;8.80;;;3.90;99.90;;;;;;4973817;28;20222;-82
2022/11/08 03:27:36;;;;;;;10.13;9.23;;;3.90;99.90;;;;;;4973431;28;20208;-82
2022/11/08 03:30:03;;;;;;;11.70;10.63;;;3.90;99.90;;;;;;4973985;28;20192;-82
2022/11/08 03:32:29;;;;;;;11.23;9.83;;;3.90;99.90;;;;;;4974107;28;20204;-82
2022/11/08 03:34:54;;;;;;;10.80;9.80;;;3.90;99.90;;;;;;4973910;28;20739;-82
2022/11/08 03:37:21;;;;;;;9.23;8.27;;;3.90;99.90;;;;;;4973259;28;20216;-82
2022/11/08 03:39:47;;;;;;;12.53;8.77;;;3.90;99.90;;;;;;4982157;28;20219;-81
2022/11/08 03:42:13;;;;;;;8.10;7.50;;;3.90;99.90;;;;;;4992405;28;20794;-82
2022/11/08 03:44:39;;;;;;;8.70;7.90;;;3.90;99.90;;;;;;4993023;28;20241;-84
2022/11/08 03:47:05;;;;;;;9.80;8.73;;;3.80;99.90;;;;;;4994486;28;20511;-85
2022/11/08 03:49:30;;;;;;;14.37;8.57;;;3.80;99.90;;;;;;4996897;28;20215;-86
2022/11/08 03:51:56;;;;;;;9.63;8.73;;;3.80;99.90;;;;;;5002350;28;20182;-85
2022/11/08 03:54:22;;;;;;;11.50;8.33;;;3.80;99.90;;;;;;4998255;28;20191;-85
2022/11/08 03:56:48;;;;;;;8.17;7.43;;;3.80;99.90;;;;;;4985960;28;20212;-83
2022/11/08 03:59:13;;;;;;;10.10;8.13;;;3.70;99.90;;;;;;4975743;28;20606;-84
2022/11/08 04:01:39;;;;;;;15.37;8.87;;;3.60;99.90;;;;;;4975783;28;20184;-82
2022/11/08 04:04:06;;;;;;;10.77;9.00;;;3.60;99.90;;;;;;4994632;28;20176;-81
2022/11/08 04:06:32;;;;;;;9.67;8.67;;;3.60;99.90;;;;;;4995554;28;20174;-83
2022/11/08 04:08:58;;;;;;;10.37;9.33;;;3.50;99.90;;;;;;5006165;28;20219;-83
2022/11/08 04:16:55;;;;;;;10.63;9.63;;;3.50;99.90;;;;;;5015246;28;20203;-83
2022/11/08 04:22:07;;;;;;;13.63;9.67;;;3.50;99.90;;;;;;4995823;28;20190;-83
2022/11/08 04:24:33;;;;;;;10.00;9.10;;;3.40;99.90;;;;;;4994103;28;20641;-83
2022/11/08 04:27:00;;;;;;;10.67;9.57;;;3.40;99.90;;;;;;4994521;28;20218;-84
2022/11/08 04:29:25;;;;;;;14.37;12.37;;;3.40;99.90;;;;;;4993109;28;20637;-84
2022/11/08 04:31:51;;;;;;;10.70;9.80;;;3.40;99.90;;;;;;4986518;28;20260;-84
2022/11/08 04:34:17;;;;;;;12.30;11.37;;;3.30;99.90;;;;;;4979606;28;20287;-82
2022/11/08 04:36:43;;;;;;;14.30;13.20;;;3.30;99.90;;;;;;4974218;28;20559;-80
2022/11/08 04:39:08;;;;;;;12.70;11.60;;;3.30;99.90;;;;;;4971081;28;20211;-81
2022/11/08 04:41:34;;;;;;;12.67;11.70;;;3.30;99.90;;;;;;4970660;28;20726;-81
2022/11/08 04:44:01;;;;;;;13.83;10.53;;;3.30;99.90;;;;;;4970162;28;20195;-81
2022/11/08 04:46:28;;;;;;;14.87;13.77;;;3.30;99.90;;;;;;4969775;28;20236;-81
2022/11/08 04:48:56;;;;;;;15.13;13.97;;;3.20;99.90;;;;;;4967880;28;20268;-81
2022/11/08 04:51:28;;;;;;;11.70;10.90;;;3.20;99.90;;;;;;4970346;28;20660;-81
2022/11/08 04:53:56;;;;;;;12.27;11.27;;;3.20;99.90;;;;;;4973333;28;20309;-82
2022/11/08 04:56:23;;;;;;;12.43;11.53;;;3.20;99.90;;;;;;4971354;28;20184;-79
2022/11/08 04:58:54;;;;;;;13.60;12.70;;;3.20;99.90;;;;;;4968246;28;20265;-76
2022/11/08 05:01:23;;;;;;;15.60;14.20;;;3.20;99.90;;;;;;4969867;28;20292;-76
2022/11/08 05:03:50;;;;;;;13.47;12.57;;;3.20;99.90;;;;;;4970209;28;20409;-76
2022/11/08 05:06:19;;;;;;;19.87;18.50;;;3.20;99.90;;;;;;4968381;28;20191;-76
2022/11/08 05:08:45;;;;;;;20.93;19.73;;;3.20;99.90;;;;;;4968657;28;20210;-76
2022/11/08 05:11:13;;;;;;;25.30;23.77;;;3.30;99.90;;;;;;4975607;28;20562;-76
2022/11/08 05:13:41;;;;;;;21.73;20.20;;;3.20;99.90;;;;;;4969403;28;20212;-75
2022/11/08 05:16:11;;;;;;;10.83;10.03;;;3.30;99.90;;;;;;4987409;28;20589;-76
2022/11/08 05:18:37;;;;;;;10.97;9.97;;;3.20;99.90;;;;;;4988102;28;20205;-76
2022/11/08 05:23:49;;;;;;;14.33;13.23;;;3.10;99.90;;;;;;4988989;28;20215;-77
2022/11/08 05:26:16;;;;;;;21.43;20.03;;;3.10;99.90;;;;;;4987321;28;20187;-75
2022/11/08 05:28:42;;;;;;;19.93;18.73;;;3.10;99.90;;;;;;4987049;28;20655;-76
2022/11/08 05:31:08;;;;;;;16.13;14.97;;;3.10;99.90;;;;;;4987774;28;20270;-76
2022/11/08 05:33:34;;;;;;;16.73;15.83;;;3.10;99.90;;;;;;4987215;28;20293;-76
2022/11/08 05:36:09;;;;;;;22.17;20.97;;;3.10;99.90;;;;;;4987235;28;20532;-76
2022/11/08 05:38:35;;;;;;;24.30;22.43;;;3.10;99.90;;;;;;4988128;28;20204;-77
2022/11/08 05:41:06;;;;;;;18.20;17.10;;;3.00;99.90;;;;;;4987057;28;20187;-77
2022/11/08 05:43:33;;;;;;;15.67;14.63;;;3.00;99.90;;;;;;4987416;28;20741;-77
2022/11/08 05:45:58;;;;;;;15.77;14.47;;;3.00;99.90;;;;;;4987151;28;20278;-76
2022/11/08 05:48:25;;;;;;;11.07;10.27;;;3.00;99.90;;;;;;4987787;28;20291;-77
2022/11/08 05:50:51;;;;;;;10.73;9.43;;;3.00;99.90;;;;;;4987119;28;20199;-77
2022/11/08 05:53:17;;;;;;;13.07;10.87;;;3.00;99.90;;;;;;4995283;28;20256;-76
2022/11/08 05:55:42;;;;;;;10.13;9.23;;;3.00;99.90;;;;;;4994232;28;20179;-78
2022/11/08 05:58:08;;;;;;;12.87;11.80;;;2.90;99.90;;;;;;4988007;28;20222;-77
2022/11/08 06:00:34;;;;;;;11.97;10.97;;;3.00;99.90;;;;;;4988085;28;20664;-76
2022/11/08 06:03:01;;;;;;;10.83;9.97;;;3.00;99.90;;;;;;4988184;28;20654;-77
2022/11/08 06:05:27;;;;;;;13.63;12.53;;;2.90;99.90;;;;;;4988207;28;20196;-77
2022/11/08 06:07:53;;;;;;;25.83;24.13;;;3.00;99.90;;;;;;4987972;28;20206;-74
2022/11/08 06:10:19;;;;;;;28.83;26.93;;;3.10;99.90;;;;;;4986439;28;20190;-72
2022/11/08 06:12:45;;;;;;;26.53;24.80;;;3.10;99.90;;;;;;4986765;28;20305;-72
2022/11/08 06:15:11;;;;;;;23.40;21.70;;;3.20;99.90;;;;;;4986746;28;20592;-72
2022/11/08 06:17:37;;;;;;;19.50;18.07;;;3.20;99.90;;;;;;4985997;28;20203;-72
2022/11/08 06:20:06;;;;;;;24.87;22.77;;;3.30;99.90;;;;;;4989648;28;20179;-73
2022/11/08 06:22:33;;;;;;;25.27;23.43;;;3.30;99.90;;;;;;4989964;28;20199;-72
2022/11/08 06:24:59;;;;;;;29.30;27.20;;;3.30;99.90;;;;;;4990449;28;20184;-77
2022/11/08 06:27:25;;;;;;;34.50;31.83;;;3.30;99.90;;;;;;4990092;28;20204;-77
2022/11/08 06:29:51;;;;;;;40.67;37.87;;;3.30;99.90;;;;;;4990492;28;20241;-76
2022/11/08 06:32:16;;;;;;;46.47;43.37;;;3.40;99.90;;;;;;4990765;28;20216;-77
2022/11/08 06:34:44;;;;;;;35.60;32.97;;;3.40;99.90;;;;;;4989406;28;20212;-77
2022/11/08 06:37:11;;;;;;;32.63;29.80;;;3.40;99.90;;;;;;4990992;28;20209;-76
2022/11/08 06:39:37;;;;;;;30.70;28.03;;;3.50;99.90;;;;;;4991234;28;20249;-77
2022/11/08 06:42:03;;;;;;;44.27;40.97;;;3.50;99.90;;;;;;4989963;28;20563;-77
2022/11/08 06:44:29;;;;;;;49.47;45.47;;;3.50;99.90;;;;;;4991136;28;20240;-77
2022/11/08 06:46:54;;;;;;;17.60;13.87;;;3.50;99.90;;;;;;4990796;28;20176;-77
2022/11/08 06:49:23;;;;;;;20.37;18.17;;;3.60;99.90;;;;;;4991463;28;20185;-77
2022/11/08 06:51:50;;;;;;;59.73;54.93;;;3.60;99.90;;;;;;4989691;28;20236;-77
2022/11/08 06:54:16;;;;;;;58.83;54.77;;;3.70;99.90;;;;;;4991019;28;20182;-77
2022/11/08 06:56:42;;;;;;;48.80;45.43;;;3.70;99.90;;;;;;4989621;28;20180;-76
2022/11/08 06:59:08;;;;;;;31.97;29.23;;;3.70;99.90;;;;;;4989667;28;20202;-75
2022/11/08 07:01:35;;;;;;;33.47;30.33;;;3.70;99.90;;;;;;4991027;28;20652;-76
2022/11/08 07:04:01;;;;;;;42.20;38.77;;;3.80;99.90;;;;;;4990759;28;20195;-76
2022/11/08 07:06:27;;;;;;;36.17;33.10;;;4.00;99.90;;;;;;4989536;28;20191;-77
2022/11/08 07:08:52;;;;;;;38.60;35.80;;;4.10;99.90;;;;;;4990446;28;20637;-77
2022/11/08 07:11:18;;;;;;;32.43;29.67;;;4.20;99.90;;;;;;4989953;28;20203;-77
2022/11/08 07:13:44;;;;;;;37.87;34.70;;;4.30;99.90;;;;;;4989755;28;20212;-77
2022/11/08 07:16:10;;;;;;;16.67;11.10;;;4.50;99.90;;;;;;4989564;28;20566;-77
2022/11/08 07:18:35;;;;;;;22.43;13.60;;;4.50;99.90;;;;;;4988968;28;20249;-77
2022/11/08 07:21:01;;;;;;;17.17;11.10;;;4.60;99.90;;;;;;4990584;28;20714;-77
2022/11/08 07:23:28;;;;;;;16.33;10.60;;;4.60;99.90;;;;;;4989686;28;20230;-77
2022/11/08 07:25:54;;;;;;;15.57;11.07;;;4.70;99.90;;;;;;4989806;28;20181;-77
2022/11/08 07:28:20;;;;;;;17.53;13.47;;;4.70;99.90;;;;;;4991210;28;20210;-77
2022/11/08 07:30:47;;;;;;;15.00;12.20;;;4.80;99.90;;;;;;4990461;28;20237;-76
2022/11/08 07:33:14;;;;;;;13.90;12.70;;;5.10;99.90;;;;;;4990120;28;20271;-77
2022/11/08 07:35:41;;;;;;;20.77;19.10;;;5.40;99.90;;;;;;4990126;28;20188;-77
2022/11/08 07:38:06;;;;;;;12.47;11.00;;;5.70;99.90;;;;;;4988865;28;20575;-76
2022/11/08 07:40:35;;;;;;;17.50;12.00;;;6.00;99.90;;;;;;4990379;28;20213;-76
2022/11/08 07:43:01;;;;;;;18.10;16.30;;;6.30;99.90;;;;;;4989124;28;20184;-76
2022/11/08 07:45:27;;;;;;;18.90;13.33;;;6.70;99.90;;;;;;4988958;28;20267;-77
2022/11/08 07:48:04;;;;;;;14.53;13.03;;;7.00;99.90;;;;;;4988451;28;20208;-76
2022/11/08 07:50:30;;;;;;;18.57;16.87;;;7.20;99.90;;;;;;4989010;28;20268;-76
2022/11/08 07:52:56;;;;;;;12.00;11.00;;;7.30;99.90;;;;;;4989039;28;20291;-76
2022/11/08 07:55:22;;;;;;;10.90;10.00;;;7.40;99.90;;;;;;4989066;28;20191;-76
2022/11/08 07:57:47;;;;;;;11.77;10.40;;;7.30;99.90;;;;;;4988558;28;20212;-76
2022/11/08 08:00:14;;;;;;;10.67;9.47;;;7.50;99.90;;;;;;4991247;28;20187;-76
2022/11/08 08:02:39;;;;;;;14.03;9.43;;;7.80;99.90;;;;;;4990059;28;20505;-76
2022/11/08 08:05:06;;;;;;;21.70;20.17;;;8.30;99.90;;;;;;4988837;28;20262;-76
2022/11/08 08:07:34;;;;;;;23.03;21.53;;;8.50;99.90;;;;;;4989508;28;20197;-76
2022/11/08 08:10:00;;;;;;;17.33;16.13;;;8.60;99.90;;;;;;4989988;28;20717;-76
2022/11/08 08:12:25;;;;;;;12.43;11.50;;;8.40;99.90;;;;;;4988659;28;20303;-76
2022/11/08 08:14:51;;;;;;;11.93;10.57;;;8.30;99.90;;;;;;4988606;28;20189;-76
2022/11/08 08:17:17;;;;;;;13.43;12.23;;;8.20;99.90;;;;;;4988216;28;20209;-76
2022/11/08 08:19:42;;;;;;;12.67;11.57;;;8.10;99.90;;;;;;4988539;28;20185;-76
2022/11/08 08:22:08;;;;;;;12.53;11.40;;;8.20;99.90;;;;;;4988706;28;20181;-76
2022/11/08 08:24:34;;;;;;;9.67;8.23;;;8.20;99.90;;;;;;4989761;28;20188;-76
2022/11/08 08:27:00;;;;;;;8.00;7.23;;;8.20;99.90;;;;;;4989293;28;20185;-76
2022/11/08 08:29:26;;;;;;;9.90;9.10;;;7.90;99.90;;;;;;4988709;28;20229;-76
2022/11/08 08:31:51;;;;;;;13.53;12.13;;;7.70;99.90;;;;;;4989595;28;20226;-76
2022/11/08 08:34:17;;;;;;;24.93;23.20;;;7.80;99.90;;;;;;4988401;28;20271;-76
2022/11/08 08:36:43;;;;;;;24.23;22.70;;;8.20;99.90;;;;;;4987924;28;20244;-76
2022/11/08 08:39:09;;;;;;;12.73;11.63;;;8.90;99.90;;;;;;4989117;28;20217;-76
2022/11/08 08:41:35;;;;;;;8.00;6.83;;;9.50;99.90;;;;;;4988212;28;20184;-76
2022/11/08 08:44:00;;;;;;;17.67;16.47;;;10.10;99.90;;;;;;4989385;28;20744;-76
2022/11/08 08:46:26;;;;;;;12.87;11.73;;;10.80;99.90;;;;;;4988292;28;20458;-77
2022/11/08 08:48:52;;;;;;;13.53;12.67;;;11.70;99.90;;;;;;4988224;28;20749;-77
2022/11/08 08:51:18;;;;;;;12.60;11.70;;;12.60;99.90;;;;;;4988631;28;20184;-78
2022/11/08 08:53:44;;;;;;;9.63;8.90;;;13.30;99.90;;;;;;4989796;28;20238;-77
2022/11/08 08:56:10;;;;;;;6.13;5.63;;;14.00;99.90;;;;;;4989739;28;20266;-76
2022/11/08 08:58:36;;;;;;;5.97;5.57;;;14.40;99.90;;;;;;4992129;28;20213;-77
2022/11/08 09:01:07;;;;;;;9.43;8.70;;;14.40;99.90;;;;;;4990495;28;20185;-77
2022/11/08 09:03:35;;;;;;;11.77;11.10;;;14.50;99.90;;;;;;4988482;28;20185;-77
2022/11/08 09:06:01;;;;;;;10.53;9.83;;;14.90;99.90;;;;;;4988542;28;20188;-78
2022/11/08 09:08:27;;;;;;;9.77;9.17;;;15.30;99.90;;;;;;4987878;28;20212;-77
2022/11/08 09:10:58;;;;;;;8.80;7.47;;;15.20;99.90;;;;;;4988712;28;20595;-77
2022/11/08 09:13:25;;;;;;;7.77;7.30;;;15.00;99.90;;;;;;4988212;28;20566;-77
2022/11/08 09:15:51;;;;;;;8.63;7.37;;;15.10;99.90;;;;;;4988002;28;20267;-77
2022/11/08 09:18:17;;;;;;;7.93;7.43;;;15.00;99.90;;;;;;4988881;28;20208;-77
2022/11/08 09:20:43;;;;;;;6.93;6.47;;;14.70;99.90;;;;;;4988004;28;20622;-77
2022/11/08 09:23:10;;;;;;;6.70;6.13;;;14.20;99.90;;;;;;4989353;28;20275;-77
2022/11/08 09:25:36;;;;;;;7.60;6.67;;;13.90;99.90;;;;;;4987899;28;20223;-78
2022/11/08 09:28:03;;;;;;;9.63;8.73;;;14.50;99.90;;;;;;4988136;28;20265;-77
2022/11/08 09:30:28;;;;;;;15.80;14.33;;;14.80;99.90;;;;;;4988556;28;20216;-77
2022/11/08 09:32:54;;;;;;;19.47;18.27;;;15.30;99.90;;;;;;4987945;28;20263;-77
2022/11/08 09:35:21;;;;;;;20.77;19.47;;;15.30;99.90;;;;;;4988507;28;20234;-78
2022/11/08 09:37:47;;;;;;;24.00;22.60;;;15.80;99.90;;;;;;4987662;28;20579;-77
2022/11/08 09:40:24;;;;;;;17.37;16.40;;;16.20;99.90;;;;;;4989017;28;20181;-77
2022/11/08 09:43:05;;;;;;;40.63;38.47;;;17.30;99.90;;;;;;4987898;28;20203;-77
2022/11/08 09:45:39;;;;;;;29.93;28.27;;;18.10;99.90;;;;;;4987972;28;20256;-77
2022/11/08 09:48:13;;;;;;;28.07;26.37;;;18.60;99.90;;;;;;4988629;28;20211;-77
2022/11/08 09:50:45;;;;;;;18.47;17.40;;;18.80;99.90;;;;;;4987957;28;20278;-77
2022/11/08 09:53:43;;;;;;;14.47;13.30;;;19.10;99.90;;;;;;4989200;28;20236;-76
2022/11/08 09:56:15;;;;;;;10.53;9.73;;;19.60;99.90;;;;;;4991674;28;20187;-77
2022/11/08 09:59:22;;;;;;;9.50;8.80;;;20.00;99.90;;;;;;4992467;28;20302;-76
2022/11/08 10:01:48;;;;;;;11.33;10.53;;;21.10;99.90;;;;;;5011585;28;20196;-76
2022/11/08 10:04:15;;;;;;;15.53;14.50;;;21.20;99.90;;;;;;4991669;28;20188;-76
2022/11/08 10:06:48;;;;;;;16.20;15.10;;;21.60;99.90;;;;;;4990932;28;20644;-77
2022/11/08 10:09:34;;;;;;;17.10;15.70;;;21.50;99.90;;;;;;4990567;28;20189;-77
2022/11/08 10:12:08;;;;;;;12.13;11.17;;;21.40;99.90;;;;;;4991867;28;20189;-77
2022/11/08 10:14:56;;;;;;;10.07;9.37;;;22.30;98.20;;;;;;4991487;28;20222;-77
2022/11/08 10:17:53;;;;;;;8.90;8.20;;;22.50;96.50;;;;;;4990780;28;20200;-78
2022/11/08 10:20:53;;;;;;;7.23;6.67;;;22.40;96.70;;;;;;4990881;28;20184;-77
2022/11/08 10:23:36;;;;;;;7.50;5.87;;;23.10;95.00;;;;;;4991022;28;20176;-77
2022/11/08 10:26:24;;;;;;;7.57;7.07;;;22.90;95.00;;;;;;4991495;28;20613;-77
2022/11/08 10:28:59;;;;;;;9.13;8.43;;;22.50;94.20;;;;;;4991693;28;20208;-77
2022/11/08 10:31:29;;;;;;;7.23;6.83;;;21.80;94.60;;;;;;4992125;28;20301;-76
2022/11/08 10:33:58;;;;;;;6.87;6.40;;;20.30;96.30;;;;;;4990653;28;20223;-77
2022/11/08 10:36:46;;;;;;;8.93;5.53;;;19.50;98.50;;;;;;4990746;28;20212;-76
2022/11/08 10:39:18;;;;;;;7.73;7.13;;;18.90;99.90;;;;;;4992595;28;20223;-77
2022/11/08 10:42:15;;;;;;;10.53;9.83;;;18.60;99.90;;;;;;4990338;28;20677;-76
2022/11/08 10:44:41;;;;;;;12.50;11.77;;;18.20;99.90;;;;;;4990256;28;20184;-77
2022/11/08 10:47:16;;;;;;;22.67;21.17;;;18.10;99.90;;;;;;4989547;28;20248;-77
2022/11/08 10:49:43;;;;;;;24.67;23.07;;;17.80;99.90;;;;;;4990110;28;20191;-76
2022/11/08 10:52:11;;;;;;;21.80;20.10;;;17.70;99.90;;;;;;4991109;28;20177;-77
2022/11/08 10:54:44;;;;;;;21.97;20.20;;;17.60;99.90;;;;;;4991758;28;20215;-76
2022/11/08 10:57:15;;;;;;;30.90;28.83;;;17.50;99.90;;;;;;4989755;28;20231;-77
2022/11/08 10:59:41;;;;;;;25.53;23.83;;;17.40;99.90;;;;;;4990015;28;20186;-77
2022/11/08 11:02:23;;;;;;;20.47;18.77;;;17.30;99.90;;;;;;4990075;28;20176;-76
2022/11/08 11:04:50;;;;;;;12.23;11.23;;;17.30;99.90;;;;;;4989235;28;20184;-78
2022/11/08 11:07:35;;;;;;;13.93;12.70;;;17.40;99.90;;;;;;4990679;28;20200;-76
2022/11/08 11:10:46;;;;;;;7.90;7.33;;;17.40;99.90;;;;;;4990916;28;20188;-76
2022/11/08 11:13:25;;;;;;;8.23;7.53;;;17.30;99.90;;;;;;4992561;28;20265;-76
2022/11/08 11:16:13;;;;;;;7.70;7.10;;;17.60;99.90;;;;;;4991402;28;20184;-76
2022/11/08 11:18:48;;;;;;;9.37;6.90;;;17.70;99.90;;;;;;4990639;28;20291;-77
2022/11/08 11:21:18;;;;;;;8.13;7.43;;;17.90;99.90;;;;;;4989794;28;20217;-77
2022/11/08 11:23:52;;;;;;;9.77;9.07;;;18.30;99.90;;;;;;4990882;28;20188;-77
2022/11/08 11:26:28;;;;;;;10.30;9.30;;;18.80;99.90;;;;;;4990792;28;20213;-77
2022/11/08 11:29:05;;;;;;;11.37;10.40;;;19.10;99.90;;;;;;4989396;28;20231;-77
2022/11/08 11:31:32;;;;;;;10.57;9.77;;;19.20;99.90;;;;;;4991779;28;20192;-77
2022/11/08 11:34:19;;;;;;;11.13;10.10;;;18.80;99.90;;;;;;4991435;28;20235;-76
2022/11/08 11:37:03;;;;;;;11.70;10.77;;;18.70;99.90;;;;;;4990415;28;20180;-75
2022/11/08 11:40:01;;;;;;;13.43;12.37;;;18.70;99.90;;;;;;4990383;28;20218;-76
2022/11/08 11:42:32;;;;;;;10.93;9.97;;;18.90;99.90;;;;;;4992298;28;20532;-77
2022/11/08 11:45:16;;;;;;;13.03;12.07;;;18.80;99.90;;;;;;4991423;28;20216;-76
2022/11/08 11:47:48;;;;;;;14.13;13.23;;;18.90;99.90;;;;;;4990528;28;20707;-78
2022/11/08 11:50:39;;;;;;;14.43;13.43;;;18.80;99.90;;;;;;4991216;28;20298;-78
2022/11/08 11:53:23;;;;;;;14.93;14.10;;;18.70;99.90;;;;;;4991003;28;20737;-77
2022/11/08 11:56:07;;;;;;;15.50;14.50;;;17.80;99.90;;;;;;4990874;28;20185;-77
2022/11/08 11:58:58;;;;;;;42.03;39.53;;;17.00;99.90;;;;;;4989918;28;20223;-78
2022/11/08 12:01:30;;;;;;;41.80;39.17;;;16.80;99.90;;;;;;4990370;28;20185;-78
2022/11/08 12:04:21;;;;;;;45.53;42.83;;;17.00;99.90;;;;;;4990166;28;20184;-78
2022/11/08 12:06:47;;;;;;;42.10;39.93;;;17.40;99.90;;;;;;4990264;28;20191;-76
2022/11/08 12:09:40;;;;;;;44.13;41.77;;;17.50;99.90;;;;;;4989262;28;20795;-77
2022/11/08 12:12:43;;;;;;;35.93;34.03;;;17.60;99.90;;;;;;4988692;28;20184;-77
2022/11/08 12:15:43;;;;;;;24.83;23.53;;;17.90;99.90;;;;;;4988822;28;20612;-77
2022/11/08 12:18:17;;;;;;;16.57;15.67;;;18.20;99.90;;;;;;4988259;28;20204;-77
2022/11/08 12:21:01;;;;;;;11.17;10.50;;;18.50;99.90;;;;;;4990998;28;20191;-77
2022/11/08 12:24:09;;;;;;;11.03;10.10;;;18.60;99.90;;;;;;4991724;28;20367;-77
2022/11/08 12:27:05;;;;;;;8.70;8.00;;;19.10;99.90;;;;;;4989666;28;20547;-77
2022/11/08 12:30:10;;;;;;;9.60;9.00;;;19.30;99.90;;;;;;4989797;28;20611;-77
2022/11/08 12:32:48;;;;;;;10.00;9.40;;;19.70;99.90;;;;;;4989713;28;20265;-77
2022/11/08 12:35:35;;;;;;;18.90;17.90;;;20.90;99.90;;;;;;4989093;28;20550;-77
2022/11/08 12:38:29;;;;;;;15.87;15.07;;;21.40;99.90;;;;;;4989594;28;20555;-77
2022/11/08 12:41:23;;;;;;;9.30;8.70;;;22.70;99.90;;;;;;4990001;28;20180;-77
2022/11/08 12:44:07;;;;;;;6.72;6.32;;;26.10;95.80;;;;;;4989417;28;20263;-76
2022/11/08 12:46:57;;;;;;;6.05;5.45;;;26.70;86.70;;;;;;4989540;28;20658;-76
2022/11/08 12:50:07;;;;;;;5.13;4.68;;;28.00;75.10;;;;;;4989515;28;20744;-76
2022/11/08 12:52:55;;;;;;;5.35;5.00;;;27.70;69.30;;;;;;4989939;28;20224;-75
2022/11/08 12:55:31;;;;;;;57.80;54.80;;;28.90;67.80;;;;;;4989937;28;20249;-76
2022/11/08 12:57:59;;;;;;;43.08;40.67;;;30.90;59.00;;;;;;4987379;28;20744;-76
2022/11/08 13:00:27;;;;;;;26.55;25.15;;;31.10;54.50;;;;;;4989320;28;20176;-75
2022/11/08 13:03:24;;;;;;;6.30;4.45;;;30.10;54.50;;;;;;4989214;28;20184;-75
2022/11/08 13:06:05;;;;;;;10.65;9.73;;;30.80;51.80;;;;;;4988595;28;20220;-76
2022/11/08 13:08:42;;;;;;;16.30;15.35;;;29.30;52.30;;;;;;4988769;28;20211;-78
2022/11/08 13:11:29;;;;;;;8.38;7.93;;;29.70;52.60;;;;;;4989537;28;20192;-76
2022/11/08 13:14:00;;;;;;;6.25;5.65;;;29.70;51.50;;;;;;4988338;28;20311;-75
2022/11/08 13:16:38;;;;;;;4.53;4.15;;;29.30;51.10;;;;;;4989205;28;20237;-76